Time;durP1;ratioP1;P1;durP2;ratioP2;P2;SDS_P1;SDS_P2;PMS_P1;PMS_P2;Temp;Humidity;BMP_temperature;BMP_pressure;BME280_temperature;BME280_humidity;BME280_pressure;Samples;Min_cycle;Max_cycle;Signal;HPM_P1;HPM_P2
2022/08/24 00:02:08;;;;;;;30.92;22.70;;;18.70;99.90;;;;;;5089477;28;20049;-76
2022/08/24 00:04:34;;;;;;;35.03;24.33;;;18.70;99.90;;;;;;5088701;28;20121;-78
2022/08/24 00:07:00;;;;;;;34.78;25.08;;;18.60;99.90;;;;;;5077472;28;20127;-77
2022/08/24 00:09:27;;;;;;;40.88;26.23;;;18.60;99.90;;;;;;5075715;28;20048;-78
2022/08/24 00:11:53;;;;;;;37.25;24.40;;;18.60;99.90;;;;;;5074847;28;20046;-79
2022/08/24 00:14:18;;;;;;;35.08;25.23;;;18.60;99.90;;;;;;5077746;28;20395;-78
2022/08/24 00:16:44;;;;;;;33.60;24.77;;;18.60;99.90;;;;;;5075989;28;20040;-77
2022/08/24 00:19:10;;;;;;;36.42;25.67;;;18.60;99.90;;;;;;5074333;28;20054;-77
2022/08/24 00:21:36;;;;;;;32.83;24.52;;;18.60;99.90;;;;;;5075217;28;20055;-78
2022/08/24 00:24:02;;;;;;;35.38;25.95;;;18.50;99.90;;;;;;5075332;28;20040;-76
2022/08/24 00:26:28;;;;;;;38.53;25.88;;;18.50;99.90;;;;;;5076350;28;20040;-78
2022/08/24 00:28:54;;;;;;;35.70;25.08;;;18.50;99.90;;;;;;5075520;28;20115;-78
2022/08/24 00:31:19;;;;;;;33.95;24.73;;;18.50;99.90;;;;;;5076252;28;20055;-79
2022/08/24 00:33:45;;;;;;;37.88;26.73;;;18.40;99.90;;;;;;5075137;28;20044;-78
2022/08/24 00:36:10;;;;;;;32.85;25.38;;;18.40;99.90;;;;;;5083940;28;20096;-74
2022/08/24 00:38:36;;;;;;;38.45;27.10;;;18.30;99.90;;;;;;5097222;28;20038;-74
2022/08/24 00:41:03;;;;;;;32.60;25.15;;;18.30;99.90;;;;;;5097193;28;20025;-75
2022/08/24 00:43:30;;;;;;;39.22;26.98;;;18.30;99.90;;;;;;5080296;28;20044;-79
2022/08/24 00:46:23;;;;;;;38.88;26.85;;;18.20;99.90;;;;;;5070297;28;20048;-78
2022/08/24 00:48:55;;;;;;;42.45;26.95;;;18.20;99.90;;;;;;5070699;28;20089;-79
2022/08/24 00:51:30;;;;;;;38.83;27.93;;;18.20;99.90;;;;;;5070025;28;20040;-79
2022/08/24 00:54:01;;;;;;;38.53;27.17;;;18.20;99.90;;;;;;5070237;28;20097;-79
2022/08/24 00:56:31;;;;;;;42.25;27.67;;;18.20;99.90;;;;;;5070192;28;20091;-79
2022/08/24 00:59:02;;;;;;;33.92;25.45;;;18.20;99.90;;;;;;5070150;28;20052;-78
2022/08/24 01:01:30;;;;;;;35.33;26.60;;;18.20;99.90;;;;;;5069740;28;20115;-79
2022/08/24 01:03:57;;;;;;;42.97;28.42;;;18.20;99.90;;;;;;5070238;28;20150;-78
2022/08/24 01:06:23;;;;;;;40.78;27.38;;;18.20;99.90;;;;;;5070067;28;20068;-79
2022/08/24 01:08:49;;;;;;;39.10;27.00;;;18.20;99.90;;;;;;5069929;28;20123;-79
2022/08/24 01:11:21;;;;;;;41.55;27.15;;;18.10;99.90;;;;;;5069743;28;20058;-78
2022/08/24 01:13:48;;;;;;;;;;;18.10;99.90;;;;;;5070872;28;20055;-79
2022/08/24 01:18:48;;;;;;;38.88;27.17;;;18.10;99.90;;;;;;5053473;28;19917;-79
2022/08/24 01:19:01;;;;;;;39.30;27.95;;;18.00;99.90;;;;;;5070114;28;20052;-79
2022/08/24 01:21:35;;;;;;;39.47;27.58;;;18.00;99.90;;;;;;5069815;28;20044;-79
2022/08/24 01:24:04;;;;;;;42.00;29.90;;;18.00;99.90;;;;;;5070346;28;20530;-79
2022/08/24 01:26:38;;;;;;;41.00;28.33;;;18.00;99.90;;;;;;5071482;28;20089;-78
2022/08/24 01:29:10;;;;;;;41.10;27.02;;;18.00;99.90;;;;;;5073006;28;20141;-78
2022/08/24 01:31:36;;;;;;;41.25;29.77;;;18.00;99.90;;;;;;5072780;28;20459;-78
2022/08/24 01:34:02;;;;;;;41.55;26.75;;;17.90;99.90;;;;;;5072960;28;20047;-78
2022/08/24 01:36:39;;;;;;;35.38;25.95;;;17.80;99.90;;;;;;5072601;28;20059;-76
2022/08/24 01:39:28;;;;;;;37.22;26.35;;;17.80;99.90;;;;;;5071859;28;20040;-77
2022/08/24 01:41:53;;;;;;;35.83;26.08;;;17.80;99.90;;;;;;5056420;28;20059;-77
2022/08/24 01:44:21;;;;;;;38.78;27.20;;;17.80;99.90;;;;;;5070798;28;20495;-77
2022/08/24 01:46:52;;;;;;;39.35;26.65;;;17.80;99.90;;;;;;5069389;28;20553;-77
2022/08/24 01:49:19;;;;;;;39.10;27.85;;;17.80;99.90;;;;;;5069377;28;20500;-77
2022/08/24 01:51:45;;;;;;;37.35;27.08;;;17.80;99.90;;;;;;5069095;28;20040;-77
2022/08/24 01:54:11;;;;;;;37.45;26.20;;;17.80;99.90;;;;;;5069749;28;20054;-77
2022/08/24 01:56:37;;;;;;;36.28;25.70;;;17.80;99.90;;;;;;5069362;28;20495;-77
2022/08/24 01:59:04;;;;;;;35.08;26.48;;;17.70;99.90;;;;;;5070678;28;20052;-77
2022/08/24 02:01:33;;;;;;;43.60;27.48;;;17.70;99.90;;;;;;5069277;28;20041;-77
2022/08/24 02:04:01;;;;;;;36.58;27.08;;;17.70;99.90;;;;;;5070602;28;20127;-77
2022/08/24 02:06:27;;;;;;;41.05;27.50;;;17.60;99.90;;;;;;5069340;28;20040;-77
2022/08/24 02:08:52;;;;;;;41.50;27.50;;;17.60;99.90;;;;;;5069365;28;20044;-77
2022/08/24 02:11:18;;;;;;;39.70;27.00;;;17.60;99.90;;;;;;5068818;28;20052;-77
2022/08/24 02:13:44;;;;;;;41.33;27.20;;;17.60;99.90;;;;;;5052619;28;20453;-77
2022/08/24 02:16:09;;;;;;;37.05;26.33;;;17.60;99.90;;;;;;5069221;28;20041;-77
2022/08/24 02:18:39;;;;;;;41.08;26.55;;;17.60;99.90;;;;;;5069448;28;20407;-77
2022/08/24 02:21:07;;;;;;;37.30;26.60;;;17.50;99.90;;;;;;5068994;28;20492;-77
2022/08/24 02:23:34;;;;;;;41.17;29.13;;;17.60;99.90;;;;;;5069290;28;20504;-78
2022/08/24 02:26:01;;;;;;;37.58;27.45;;;17.60;99.90;;;;;;5069243;28;20420;-77
2022/08/24 02:28:27;;;;;;;37.35;26.60;;;17.50;99.90;;;;;;5070961;28;20480;-78
2022/08/24 02:30:54;;;;;;;39.58;27.92;;;17.50;99.90;;;;;;5072470;28;20080;-78
2022/08/24 02:33:22;;;;;;;42.20;28.52;;;17.50;99.90;;;;;;5071620;28;20068;-76
2022/08/24 02:35:48;;;;;;;43.13;30.45;;;17.50;99.90;;;;;;5072246;28;20048;-76
2022/08/24 02:38:14;;;;;;;40.20;28.92;;;17.50;99.90;;;;;;5072116;28;20052;-77
2022/08/24 02:40:40;;;;;;;44.45;29.88;;;17.40;99.90;;;;;;5071547;28;20040;-79
2022/08/24 02:43:05;;;;;;;38.05;26.60;;;17.40;99.90;;;;;;5074560;28;20202;-79
2022/08/24 02:45:32;;;;;;;38.83;28.75;;;17.40;99.90;;;;;;5076413;28;20499;-78
2022/08/24 02:47:57;;;;;;;38.95;27.77;;;17.40;99.90;;;;;;5075952;28;20044;-78
2022/08/24 02:50:25;;;;;;;42.53;29.05;;;17.40;99.90;;;;;;5075932;28;20055;-78
2022/08/24 02:52:51;;;;;;;39.08;26.70;;;17.40;99.90;;;;;;5076326;28;20040;-78
2022/08/24 02:55:17;;;;;;;38.30;27.35;;;17.30;99.90;;;;;;5076251;28;20501;-78
2022/08/24 02:57:43;;;;;;;39.33;28.08;;;17.30;99.90;;;;;;5076809;28;20048;-79
2022/08/24 03:00:13;;;;;;;44.40;29.85;;;17.30;99.90;;;;;;5096362;28;20054;-75
2022/08/24 03:02:39;;;;;;;40.53;30.83;;;17.40;99.90;;;;;;5099113;28;20036;-75
2022/08/24 03:05:06;;;;;;;42.20;29.60;;;17.40;99.90;;;;;;5088666;28;20127;-77
2022/08/24 03:07:32;;;;;;;46.42;29.23;;;17.40;99.90;;;;;;5072168;28;20131;-79
2022/08/24 03:09:57;;;;;;;41.33;29.15;;;17.30;99.90;;;;;;5055383;28;20179;-77
2022/08/24 03:12:23;;;;;;;37.75;27.13;;;17.30;99.90;;;;;;5072248;28;20121;-77
2022/08/24 03:14:48;;;;;;;41.85;28.02;;;17.20;99.90;;;;;;5072149;28;20036;-77
2022/08/24 03:17:14;;;;;;;39.67;26.35;;;17.10;99.90;;;;;;5072249;28;20068;-77
2022/08/24 03:19:41;;;;;;;40.78;26.15;;;17.20;99.90;;;;;;5071629;28;20040;-77
2022/08/24 03:22:06;;;;;;;33.78;24.52;;;17.10;99.90;;;;;;5071786;28;20115;-77
2022/08/24 03:24:32;;;;;;;36.65;25.65;;;17.10;99.90;;;;;;5071789;28;20128;-77
2022/08/24 03:26:57;;;;;;;38.65;26.60;;;17.10;99.90;;;;;;5071647;28;20079;-77
2022/08/24 03:29:23;;;;;;;33.33;23.98;;;17.10;99.90;;;;;;5055238;28;20040;-77
2022/08/24 03:31:49;;;;;;;35.50;26.38;;;17.00;99.90;;;;;;5071401;28;20089;-77
2022/08/24 03:34:15;;;;;;;34.33;24.48;;;17.10;99.90;;;;;;5071629;28;20032;-77
2022/08/24 03:36:45;;;;;;;37.53;26.95;;;17.00;99.90;;;;;;5071573;28;20515;-78
2022/08/24 03:39:11;;;;;;;44.20;27.33;;;17.10;99.90;;;;;;5071561;28;20051;-78
2022/08/24 03:41:37;;;;;;;36.20;25.95;;;17.10;99.90;;;;;;5071043;28;20048;-77
2022/08/24 03:44:03;;;;;;;45.40;29.85;;;17.10;99.90;;;;;;5071607;28;20040;-77
2022/08/24 03:46:35;;;;;;;45.58;29.45;;;17.10;99.90;;;;;;5071471;28;20451;-77
2022/08/24 03:49:03;;;;;;;40.42;28.15;;;17.00;99.90;;;;;;5072775;28;20119;-77
2022/08/24 03:51:29;;;;;;;41.22;27.23;;;17.00;99.90;;;;;;5054353;28;20040;-78
2022/08/24 03:53:57;;;;;;;40.38;25.58;;;16.90;99.90;;;;;;5070142;28;20044;-77
2022/08/24 03:56:23;;;;;;;39.65;28.65;;;16.90;99.90;;;;;;5071280;28;20045;-77
2022/08/24 03:58:51;;;;;;;42.15;28.67;;;16.90;99.90;;;;;;5071133;28;20044;-77
2022/08/24 04:01:16;;;;;;;44.60;29.33;;;16.90;99.90;;;;;;5070775;28;20051;-77
2022/08/24 04:03:44;;;;;;;41.53;28.52;;;17.00;99.90;;;;;;5072326;28;20394;-77
2022/08/24 04:06:12;;;;;;;42.92;26.95;;;16.90;99.90;;;;;;5071118;28;20036;-77
2022/08/24 04:08:38;;;;;;;39.63;27.15;;;16.90;99.90;;;;;;5071130;28;20123;-77
2022/08/24 04:11:04;;;;;;;41.33;27.88;;;16.90;99.90;;;;;;5070951;28;20044;-77
2022/08/24 04:13:30;;;;;;;39.85;26.95;;;16.90;99.90;;;;;;5071147;28;20047;-77
2022/08/24 04:16:07;;;;;;;40.40;26.90;;;16.90;99.90;;;;;;5070905;28;20055;-77
2022/08/24 04:18:33;;;;;;;33.03;24.40;;;16.90;99.90;;;;;;5072351;28;20036;-78
2022/08/24 04:20:59;;;;;;;37.08;25.80;;;16.90;99.90;;;;;;5070743;28;20043;-77
2022/08/24 04:23:24;;;;;;;40.38;27.02;;;16.90;99.90;;;;;;5070573;28;20032;-77
2022/08/24 04:25:50;;;;;;;34.90;24.70;;;16.90;99.90;;;;;;5070791;28;20443;-77
2022/08/24 04:28:18;;;;;;;39.10;27.83;;;16.90;99.90;;;;;;5070981;28;20076;-77
2022/08/24 04:30:49;;;;;;;43.58;28.20;;;17.00;99.90;;;;;;5053748;28;20083;-78
2022/08/24 04:33:15;;;;;;;38.13;27.10;;;16.90;99.90;;;;;;5070601;28;20076;-77
2022/08/24 04:35:44;;;;;;;37.58;24.45;;;16.90;99.90;;;;;;5070472;28;20051;-79
2022/08/24 04:38:10;;;;;;;39.33;27.45;;;17.00;99.90;;;;;;5070316;28;20080;-77
2022/08/24 04:40:41;;;;;;;41.83;27.75;;;17.00;99.90;;;;;;5070193;28;20079;-77
2022/08/24 04:43:07;;;;;;;38.90;26.58;;;17.00;99.90;;;;;;5070134;28;20455;-77
2022/08/24 04:45:37;;;;;;;41.25;26.30;;;17.00;99.90;;;;;;5070497;28;20101;-83
2022/08/24 04:48:03;;;;;;;38.13;24.63;;;17.00;99.90;;;;;;5054361;28;20102;-81
2022/08/24 04:50:29;;;;;;;42.97;27.20;;;17.00;99.90;;;;;;5054284;28;20125;-83
2022/08/24 04:52:55;;;;;;;51.55;30.58;;;17.00;99.90;;;;;;5071029;28;20039;-83
2022/08/24 04:55:20;;;;;;;47.92;29.92;;;17.00;99.90;;;;;;5071681;28;20495;-83
2022/08/24 04:57:46;;;;;;;47.70;30.42;;;17.00;99.90;;;;;;5054596;28;20153;-82
2022/08/24 05:00:12;;;;;;;49.67;30.50;;;17.00;99.90;;;;;;5070800;28;20071;-83
2022/08/24 05:02:40;;;;;;;43.63;28.13;;;17.00;99.90;;;;;;5070819;28;20117;-83
2022/08/24 05:05:08;;;;;;;38.33;25.63;;;17.00;99.90;;;;;;5070347;28;20052;-83
2022/08/24 05:07:34;;;;;;;39.63;24.92;;;17.00;99.90;;;;;;5071784;28;20048;-83
2022/08/24 05:09:59;;;;;;;32.42;24.73;;;17.10;99.90;;;;;;5070659;28;20040;-83
2022/08/24 05:12:25;;;;;;;33.25;24.30;;;17.20;99.90;;;;;;5070445;28;20041;-83
2022/08/24 05:14:51;;;;;;;36.72;25.63;;;17.40;99.90;;;;;;5070147;28;20105;-83
2022/08/24 05:17:17;;;;;;;40.17;27.65;;;17.50;99.90;;;;;;5069779;28;20048;-83
2022/08/24 05:19:42;;;;;;;38.38;26.92;;;17.60;99.90;;;;;;5070626;28;20093;-83
2022/08/24 05:22:08;;;;;;;36.80;24.60;;;17.60;99.90;;;;;;5071672;28;20373;-84
2022/08/24 05:24:34;;;;;;;36.17;24.02;;;17.70;99.90;;;;;;5069802;28;20041;-86
2022/08/24 05:26:59;;;;;;;33.53;23.98;;;17.70;99.90;;;;;;5069914;28;20060;-81
2022/08/24 05:29:25;;;;;;;31.50;23.95;;;17.70;99.90;;;;;;5073569;28;20048;-82
2022/08/24 05:31:52;;;;;;;37.70;25.48;;;17.70;99.90;;;;;;5054885;28;20036;-81
2022/08/24 05:34:18;;;;;;;35.88;24.58;;;17.70;99.90;;;;;;5072862;28;20105;-82
2022/08/24 05:36:44;;;;;;;37.47;24.83;;;17.80;99.90;;;;;;5072841;28;20052;-82
2022/08/24 05:39:12;;;;;;;32.97;23.67;;;17.90;99.90;;;;;;5072464;28;20044;-82
2022/08/24 05:41:43;;;;;;;36.08;26.65;;;17.90;99.90;;;;;;5056954;28;20040;-82
2022/08/24 05:44:09;;;;;;;34.22;25.88;;;17.90;99.90;;;;;;5071327;28;20133;-82
2022/08/24 05:46:36;;;;;;;34.53;25.73;;;18.00;99.90;;;;;;5055316;28;20035;-82
2022/08/24 05:49:02;;;;;;;32.67;24.42;;;18.10;99.90;;;;;;5054690;28;20047;-83
2022/08/24 05:51:28;;;;;;;34.13;25.67;;;18.10;99.90;;;;;;5071138;28;20037;-82
2022/08/24 05:53:55;;;;;;;33.30;23.55;;;18.10;99.90;;;;;;5054610;28;20040;-83
2022/08/24 05:56:21;;;;;;;32.75;24.88;;;18.10;99.90;;;;;;5054383;28;20041;-82
2022/08/24 05:58:47;;;;;;;33.58;24.58;;;18.30;99.90;;;;;;5054475;28;20043;-83
2022/08/24 06:01:12;;;;;;;36.45;24.85;;;18.40;99.90;;;;;;5063913;28;20048;-82
2022/08/24 06:03:39;;;;;;;36.60;27.27;;;18.50;99.90;;;;;;5034191;28;20400;-83
2022/08/24 06:06:07;;;;;;;38.33;27.10;;;18.60;99.90;;;;;;5050401;28;20112;-83
2022/08/24 06:08:41;;;;;;;42.25;29.90;;;18.70;99.90;;;;;;5035089;28;20408;-83
2022/08/24 06:11:07;;;;;;;42.65;30.88;;;18.70;99.90;;;;;;5068687;28;20107;-86
2022/08/24 06:13:33;;;;;;;43.10;32.58;;;18.70;99.90;;;;;;5095639;28;20048;-86
2022/08/24 06:16:08;;;;;;;46.97;32.60;;;18.70;99.90;;;;;;5095535;28;20032;-86
2022/08/24 06:18:34;;;;;;;46.45;32.47;;;18.80;99.90;;;;;;5099554;28;20051;-87
2022/08/24 06:21:15;;;;;;;50.90;36.40;;;18.70;99.90;;;;;;5106034;28;20050;-87
2022/08/24 06:23:42;;;;;;;50.53;34.72;;;18.80;99.90;;;;;;5070597;28;20396;-82
2022/08/24 06:28:55;;;;;;;59.97;36.83;;;18.90;99.90;;;;;;5073005;28;20055;-84
2022/08/24 06:31:23;;;;;;;58.42;39.40;;;18.90;99.90;;;;;;5072705;28;20044;-84
2022/08/24 06:33:49;;;;;;;61.25;40.42;;;19.00;99.90;;;;;;5073137;28;20033;-85
2022/08/24 06:36:14;;;;;;;60.30;37.92;;;19.00;99.90;;;;;;5072653;28;20500;-84
2022/08/24 06:38:40;;;;;;;62.58;39.40;;;19.10;99.90;;;;;;5073538;28;20101;-84
2022/08/24 06:41:07;;;;;;;63.70;41.25;;;19.20;99.90;;;;;;5076811;28;20509;-84
2022/08/24 06:43:33;;;;;;;58.13;40.25;;;19.20;99.90;;;;;;5056942;28;20040;-81
2022/08/24 06:45:59;;;;;;;57.88;38.70;;;19.30;99.90;;;;;;5069220;28;20541;-82
2022/08/24 06:48:26;;;;;;;55.05;38.72;;;19.50;99.90;;;;;;5089514;28;20040;-82
2022/08/24 06:50:52;;;;;;;56.85;40.47;;;19.90;99.90;;;;;;5068379;28;20043;-83
2022/08/24 06:53:18;;;;;;;50.83;38.05;;;20.30;99.90;;;;;;5066800;28;20469;-83
2022/08/24 06:55:53;;;;;;;55.15;36.92;;;20.40;99.90;;;;;;5064128;28;20083;-82
2022/08/24 06:58:19;;;;;;;53.58;37.28;;;20.80;99.90;;;;;;5054259;28;20040;-81
2022/08/24 07:00:46;;;;;;;55.08;38.65;;;21.20;99.90;;;;;;5055653;28;20036;-80
2022/08/24 07:03:11;;;;;;;50.42;37.97;;;21.40;99.90;;;;;;5072574;28;20036;-80
2022/08/24 07:05:38;;;;;;;51.70;37.83;;;21.50;99.90;;;;;;5054601;28;20747;-75
2022/08/24 07:08:05;;;;;;;50.13;35.70;;;21.50;99.90;;;;;;5072688;28;20442;-75
2022/08/24 07:10:32;;;;;;;46.30;35.55;;;21.40;99.90;;;;;;5073871;28;20050;-83
2022/08/24 07:12:57;;;;;;;50.67;36.72;;;21.50;99.90;;;;;;5070091;28;20040;-84
2022/08/24 07:15:23;;;;;;;44.10;35.13;;;21.80;99.90;;;;;;5069421;28;20051;-82
2022/08/24 07:17:50;;;;;;;42.47;34.53;;;22.20;99.90;;;;;;5070514;28;20040;-83
2022/08/24 07:20:16;;;;;;;40.42;32.15;;;22.90;99.90;;;;;;5055107;28;20041;-83
2022/08/24 07:22:43;;;;;;;41.92;31.70;;;23.60;99.90;;;;;;5087391;28;20036;-80
2022/08/24 07:25:10;;;;;;;38.42;31.83;;;24.30;99.90;;;;;;5099488;28;20048;-79
2022/08/24 07:27:36;;;;;;;41.20;32.10;;;24.90;99.90;;;;;;5106809;28;20020;-81
2022/08/24 07:30:02;;;;;;;34.80;28.88;;;25.30;99.90;;;;;;5086114;28;20121;-83
2022/08/24 07:32:28;;;;;;;33.75;30.00;;;25.70;99.90;;;;;;5071905;28;20531;-83
2022/08/24 07:34:53;;;;;;;34.30;27.98;;;26.20;99.90;;;;;;5066374;28;20057;-83
2022/08/24 07:37:19;;;;;;;36.60;27.92;;;26.50;99.90;;;;;;5055401;28;20686;-82
2022/08/24 07:39:45;;;;;;;32.97;26.92;;;26.70;99.90;;;;;;5054876;28;20036;-83
2022/08/24 07:42:10;;;;;;;28.35;23.08;;;27.00;99.90;;;;;;5069932;28;20119;-83
2022/08/24 07:44:37;;;;;;;28.98;24.45;;;27.10;99.90;;;;;;5071822;28;20049;-83
2022/08/24 07:47:03;;;;;;;26.30;20.52;;;27.50;99.90;;;;;;5077719;28;20068;-83
2022/08/24 07:49:30;;;;;;;26.40;20.73;;;27.90;99.90;;;;;;5057924;28;20045;-83
2022/08/24 07:51:56;;;;;;;22.48;19.48;;;28.40;99.90;;;;;;5058713;28;20059;-84
2022/08/24 07:54:21;;;;;;;23.83;19.83;;;28.50;99.90;;;;;;5076023;28;20033;-85
2022/08/24 07:56:48;;;;;;;26.63;18.70;;;28.80;99.90;;;;;;5095113;28;20104;-84
2022/08/24 07:59:15;;;;;;;21.40;17.00;;;29.10;99.90;;;;;;5097432;28;20040;-82
2022/08/24 08:01:41;;;;;;;23.45;18.52;;;29.30;99.90;;;;;;5068102;28;20032;-82
2022/08/24 08:04:07;;;;;;;17.52;15.43;;;29.50;99.90;;;;;;5073153;28;20037;-82
2022/08/24 08:06:32;;;;;;;19.40;14.43;;;29.50;99.90;;;;;;5056642;28;20079;-81
2022/08/24 08:08:58;;;;;;;16.92;14.05;;;29.50;99.90;;;;;;5059494;28;20071;-83
2022/08/24 08:11:24;;;;;;;15.73;13.57;;;29.80;99.90;;;;;;5055217;28;20082;-82
2022/08/24 08:13:50;;;;;;;16.05;12.45;;;29.90;99.90;;;;;;5073933;28;20040;-82
2022/08/24 08:16:15;;;;;;;14.00;12.45;;;29.90;99.90;;;;;;5070990;28;20506;-83
2022/08/24 08:18:42;;;;;;;17.67;13.15;;;29.90;99.90;;;;;;5070728;28;20044;-84
2022/08/24 08:24:13;;;;;;;18.63;13.52;;;30.00;99.90;;;;;;5053698;28;20071;-82
2022/08/24 08:26:53;;;;;;;14.13;12.63;;;30.50;99.90;;;;;;5062419;28;20533;-84
2022/08/24 08:29:19;;;;;;;17.75;15.10;;;30.70;99.90;;;;;;5070152;28;20079;-83
2022/08/24 08:31:45;;;;;;;18.58;14.10;;;30.80;98.60;;;;;;5068917;28;20036;-84
2022/08/24 08:34:12;;;;;;;16.88;12.82;;;30.80;98.40;;;;;;5073031;28;20044;-83
2022/08/24 08:36:39;;;;;;;14.77;12.02;;;30.70;98.40;;;;;;5077062;28;20043;-83
2022/08/24 08:39:11;;;;;;;15.88;10.55;;;30.70;97.90;;;;;;5056050;28;20045;-83
2022/08/24 08:42:13;;;;;;;11.18;10.02;;;30.70;98.60;;;;;;5052677;28;20036;-83
2022/08/24 08:44:58;;;;;;;16.00;9.70;;;30.50;95.30;;;;;;5062277;28;20036;-83
2022/08/24 08:48:07;;;;;;;18.40;9.35;;;30.50;99.10;;;;;;5070026;28;20040;-83
2022/08/24 08:51:26;;;;;;;14.27;10.00;;;30.60;97.60;;;;;;5069727;28;20491;-83
2022/08/24 08:54:12;;;;;;;12.00;9.68;;;30.80;89.40;;;;;;4973221;28;20070;-83
2022/08/24 08:57:13;;;;;;;13.55;8.93;;;30.90;93.50;;;;;;5045818;28;20067;-83
2022/08/24 09:00:07;;;;;;;12.70;7.68;;;30.80;94.00;;;;;;5070388;28;20047;-83
2022/08/24 09:02:57;;;;;;;12.65;8.23;;;30.80;94.90;;;;;;5070212;28;20163;-83
2022/08/24 09:06:01;;;;;;;8.95;6.63;;;31.00;91.60;;;;;;5070533;28;20045;-83
2022/08/24 09:09:05;;;;;;;7.75;6.13;;;31.40;91.90;;;;;;5067776;28;20441;-83
2022/08/24 09:11:53;;;;;;;26.70;18.38;;;31.40;92.10;;;;;;5070457;28;20411;-83
2022/08/24 09:14:45;;;;;;;11.85;7.05;;;31.50;92.70;;;;;;5068706;28;20056;-83
2022/08/24 09:17:35;;;;;;;11.60;8.82;;;31.40;91.70;;;;;;5069790;28;20049;-83
2022/08/24 09:20:37;;;;;;;11.50;9.40;;;31.40;91.70;;;;;;5049936;28;20049;-82
2022/08/24 09:23:52;;;;;;;11.48;7.95;;;31.40;88.10;;;;;;5065862;28;20052;-82
2022/08/24 09:26:25;;;;;;;12.93;8.82;;;31.50;88.50;;;;;;5007116;28;20713;-82
2022/08/24 09:29:29;;;;;;;10.77;7.68;;;31.40;91.30;;;;;;5070014;28;20412;-82
2022/08/24 09:32:29;;;;;;;11.02;9.25;;;31.50;93.70;;;;;;4973184;28;20054;-83
2022/08/24 09:35:00;;;;;;;11.25;8.98;;;31.50;93.70;;;;;;4959213;28;20038;-83
2022/08/24 09:37:31;;;;;;;;;;;31.70;90.00;;;;;;5043374;28;20476;-82
2022/08/24 09:40:16;;;;;;;10.38;7.85;;;31.60;85.80;;;;;;5069703;28;20302;-81
2022/08/24 09:42:41;;;;;;;10.57;8.15;;;31.80;87.50;;;;;;5034981;28;20032;-81
2022/08/24 09:45:39;;;;;;;8.30;6.40;;;32.00;87.40;;;;;;5033724;28;20095;-81
2022/08/24 09:48:25;;;;;;;13.57;10.57;;;32.20;87.80;;;;;;5059443;28;20087;-82
2022/08/24 09:51:21;;;;;;;9.55;8.60;;;32.20;84.80;;;;;;5047368;28;20071;-82
2022/08/24 09:54:07;;;;;;;11.52;8.07;;;32.10;80.90;;;;;;5048405;28;20123;-80
2022/08/24 09:56:39;;;;;;;11.25;7.65;;;32.00;89.90;;;;;;5077044;28;20487;-81
2022/08/24 09:59:17;;;;;;;10.38;6.80;;;32.00;88.20;;;;;;5077813;28;20076;-82
2022/08/24 10:02:22;;;;;;;9.43;6.35;;;32.20;84.90;;;;;;5070761;28;20139;-82
2022/08/24 10:05:21;;;;;;;11.98;8.95;;;32.20;81.10;;;;;;5071455;28;20147;-81
2022/08/24 10:08:04;;;;;;;7.47;5.95;;;32.30;80.20;;;;;;5066766;28;20495;-82
2022/08/24 10:10:51;;;;;;;10.32;8.32;;;32.40;81.60;;;;;;5073192;28;20053;-82
2022/08/24 10:13:38;;;;;;;8.77;6.32;;;32.50;75.10;;;;;;5055791;28;20376;-82
2022/08/24 10:16:14;;;;;;;12.93;6.38;;;32.40;81.10;;;;;;5056588;28;20040;-82
2022/08/24 10:18:52;;;;;;;13.70;7.68;;;32.20;83.70;;;;;;5073551;28;20078;-86
2022/08/24 10:21:27;;;;;;;11.05;7.28;;;32.20;80.10;;;;;;5069883;28;20526;-82
2022/08/24 10:24:33;;;;;;;8.50;6.15;;;32.10;81.40;;;;;;5055465;28;20037;-83
2022/08/24 10:27:37;;;;;;;8.90;5.95;;;32.00;82.90;;;;;;5084487;28;20032;-82
2022/08/24 10:30:35;;;;;;;11.70;6.15;;;32.10;77.80;;;;;;5072643;28;20044;-82
2022/08/24 10:33:27;;;;;;;8.80;7.90;;;32.00;78.80;;;;;;5053705;28;20116;-82
2022/08/24 10:36:35;;;;;;;10.00;7.18;;;31.90;77.50;;;;;;5053684;28;20048;-83
2022/08/24 10:39:41;;;;;;;9.73;5.97;;;31.80;78.80;;;;;;5056775;28;20396;-78
2022/08/24 10:46:12;;;;;;;9.75;6.43;;;31.60;80.20;;;;;;5055918;28;20052;-78
2022/08/24 10:48:51;;;;;;;8.93;4.72;;;31.30;84.80;;;;;;5056127;28;20049;-80
2022/08/24 10:51:49;;;;;;;8.27;5.88;;;31.10;88.40;;;;;;5056275;28;20041;-80
2022/08/24 10:54:18;;;;;;;7.97;5.57;;;31.00;86.40;;;;;;5055204;28;20404;-80
2022/08/24 10:57:05;;;;;;;8.73;5.25;;;31.00;89.80;;;;;;5055479;28;20052;-81
2022/08/24 10:59:50;;;;;;;7.53;5.65;;;31.10;91.40;;;;;;5054720;28;20649;-81
2022/08/24 11:02:33;;;;;;;5.55;4.07;;;31.20;90.00;;;;;;5052764;28;20080;-81
2022/08/24 11:05:04;;;;;;;8.50;5.60;;;31.30;90.60;;;;;;5070194;28;20033;-81
2022/08/24 11:07:30;;;;;;;;;;;31.60;82.80;;;;;;5069973;28;20077;-81
2022/08/24 11:10:00;;;;;;;6.32;5.60;;;31.50;87.30;;;;;;5052992;28;19971;-81
2022/08/24 11:12:31;;;;;;;5.35;3.95;;;31.50;79.30;;;;;;5054802;28;20091;-81
2022/08/24 11:15:19;;;;;;;5.38;3.60;;;31.20;81.40;;;;;;5055680;28;20044;-81
2022/08/24 11:18:00;;;;;;;4.60;2.50;;;31.30;90.20;;;;;;5053179;28;20057;-81
2022/08/24 11:20:31;;;;;;;;;;;31.50;81.00;;;;;;5054969;28;20048;-83
2022/08/24 11:23:28;;;;;;;3.13;1.73;;;31.40;88.40;;;;;;5036073;28;19917;-83
2022/08/24 11:26:01;;;;;;;2.30;1.67;;;31.50;81.00;;;;;;5048339;28;20033;-82
2022/08/24 11:28:57;;;;;;;5.22;2.20;;;31.60;79.60;;;;;;5072064;28;20045;-81
2022/08/24 11:31:38;;;;;;;3.75;1.80;;;31.80;72.30;;;;;;5053548;28;20407;-82
2022/08/24 11:34:12;;;;;;;2.83;1.42;;;31.90;73.60;;;;;;5072469;28;20090;-82
2022/08/24 11:36:40;;;;;;;1.90;1.67;;;31.80;77.70;;;;;;5072412;28;20491;-82
2022/08/24 11:39:32;;;;;;;3.33;1.90;;;32.00;72.70;;;;;;5072524;28;20044;-82
2022/08/24 11:42:07;;;;;;;2.30;1.65;;;32.00;71.90;;;;;;5071907;28;20033;-82
2022/08/24 11:45:00;;;;;;;2.90;2.15;;;32.10;71.00;;;;;;5071821;28;20044;-82
2022/08/24 11:47:38;;;;;;;3.35;1.85;;;32.40;67.00;;;;;;5055403;28;20395;-82
2022/08/24 11:50:39;;;;;;;4.32;1.90;;;32.40;66.40;;;;;;5055310;28;20175;-81
2022/08/24 11:53:35;;;;;;;5.03;2.10;;;32.40;68.40;;;;;;5055054;28;20036;-82
2022/08/24 11:56:18;;;;;;;3.67;1.92;;;32.40;68.50;;;;;;5071672;28;20048;-83
2022/08/24 11:58:52;;;;;;;4.32;1.65;;;32.10;70.10;;;;;;5062531;28;20050;-83
2022/08/24 12:01:22;;;;;;;2.65;2.30;;;31.60;75.40;;;;;;5073108;28;20063;-82
2022/08/24 12:04:12;;;;;;;2.03;1.83;;;31.10;77.70;;;;;;5071682;28;20040;-82
2022/08/24 12:07:02;;;;;;;2.10;1.90;;;30.90;85.30;;;;;;5071078;28;20044;-82
2022/08/24 12:09:59;;;;;;;3.95;2.03;;;30.70;88.00;;;;;;5070126;28;20045;-81
2022/08/24 12:12:49;;;;;;;3.20;1.90;;;30.90;85.20;;;;;;5054892;28;20043;-82
2022/08/24 12:15:25;;;;;;;3.75;1.52;;;30.90;81.40;;;;;;5053682;28;20040;-81
2022/08/24 12:18:03;;;;;;;7.65;2.00;;;30.80;82.30;;;;;;5055477;28;20062;-81
2022/08/24 12:20:40;;;;;;;4.65;2.15;;;30.70;84.80;;;;;;5070967;28;20036;-81
2022/08/24 12:23:29;;;;;;;3.70;1.83;;;30.60;82.80;;;;;;5072787;28;20052;-81
2022/08/24 12:26:03;;;;;;;2.25;1.48;;;30.40;86.80;;;;;;5072536;28;20040;-81
2022/08/24 12:28:51;;;;;;;3.42;1.83;;;30.30;84.10;;;;;;5063075;28;20048;-81
2022/08/24 12:31:39;;;;;;;3.40;2.10;;;30.30;84.40;;;;;;5099891;28;20088;-81
2022/08/24 12:34:45;;;;;;;3.00;1.90;;;30.30;83.20;;;;;;5096837;28;20037;-80
2022/08/24 12:37:53;;;;;;;3.40;1.50;;;30.30;83.30;;;;;;5086629;28;20044;-81
2022/08/24 12:40:22;;;;;;;2.58;1.70;;;30.40;89.00;;;;;;5013545;28;20132;-81
2022/08/24 12:42:54;;;;;;;6.30;2.15;;;30.40;93.10;;;;;;5053947;28;20047;-82
2022/08/24 12:45:22;;;;;;;2.38;1.00;;;30.60;91.90;;;;;;5069665;28;20123;-82
2022/08/24 12:48:20;;;;;;;1.75;1.35;;;30.90;90.00;;;;;;5052626;28;20049;-81
2022/08/24 12:50:51;;;;;;;2.13;1.50;;;31.10;83.60;;;;;;5072100;28;20048;-81
2022/08/24 12:53:40;;;;;;;;;;;31.10;84.60;;;;;;5071446;28;20098;-81
2022/08/24 12:56:36;;;;;;;2.53;1.60;;;31.10;74.70;;;;;;5070782;28;19922;-82
2022/08/24 12:59:11;;;;;;;2.65;1.23;;;31.10;75.70;;;;;;5071770;28;20056;-81
2022/08/24 13:02:03;;;;;;;3.08;1.63;;;31.10;74.30;;;;;;5054174;28;20055;-81
2022/08/24 13:04:50;;;;;;;2.05;1.40;;;31.10;82.30;;;;;;5069962;28;20083;-79
2022/08/24 13:07:18;;;;;;;2.28;0.98;;;31.20;80.20;;;;;;5070157;28;20592;-79
2022/08/24 13:09:46;;;;;;;1.05;0.80;;;31.40;73.00;;;;;;5069856;28;20132;-80
2022/08/24 13:12:40;;;;;;;1.75;1.00;;;31.40;76.50;;;;;;5053580;28;20094;-79
2022/08/24 13:15:27;;;;;;;1.20;1.00;;;31.60;67.60;;;;;;5071458;28;20075;-81